Poston, Arizona
Current Conditions -  °F | °C
As of 8:52 AM on Thursday 23 Oct 2014 (Local Time) from KBLH Reporting Station
Clear Clear  
Wind Chill: 75°   Ceiling: Unl
Heat Index: 75°   Visibility: 10mi
Dew Point: 44°   Wind: 6mph
Humidity: 33%   Direction: 240°WSW
Pressure: 30"   Gusts: NA
Location:  33.96°N, 114.42°W
Report Text: KBLH 231552Z AUTO 24005KT 10SM CLR 24/07 A3000 RMK AO2 SLP153 T02390067
Loading
Personal Weather Stations






























Interactive Weather Map
Tropical Storm Tracking
New forecast layout! Learn more

10-Day Weather Forecast

Advertisements
Track Severe Weather on mobile